createdAt,value
2023-01-05T00:02:24.309Z,84
2023-01-05T00:04:21.595Z,84
2023-01-05T00:06:21.466Z,84
2023-01-05T00:08:21.589Z,84
2023-01-05T00:10:21.486Z,84
2023-01-05T00:12:21.483Z,84
2023-01-05T00:14:21.489Z,84
2023-01-05T00:18:21.515Z,84
2023-01-05T00:20:21.480Z,84
2023-01-05T00:22:21.512Z,84
2023-01-05T00:32:21.492Z,84
2023-01-05T00:34:21.484Z,84
2023-01-05T00:36:21.493Z,84
2023-01-05T00:38:21.460Z,84
2023-01-05T00:40:21.531Z,84
2023-01-05T00:42:21.462Z,84
2023-01-05T00:48:21.527Z,84
2023-01-05T00:50:21.474Z,84
2023-01-05T00:54:21.507Z,84
2023-01-05T00:56:21.534Z,84
2023-01-05T00:58:21.468Z,84
2023-01-05T01:00:21.529Z,84
2023-01-05T01:02:21.606Z,84
2023-01-05T01:04:21.534Z,84
2023-01-05T01:06:21.477Z,84
2023-01-05T01:08:21.466Z,84
2023-01-05T01:10:21.526Z,84
2023-01-05T01:12:21.519Z,85
2023-01-05T01:14:21.479Z,85
2023-01-05T01:16:21.497Z,85
2023-01-05T01:20:21.543Z,86
2023-01-05T01:22:21.505Z,86
2023-01-05T01:24:21.475Z,85
2023-01-05T01:26:21.491Z,85
2023-01-05T01:30:21.572Z,85
2023-01-05T01:34:21.471Z,85
2023-01-05T01:36:21.470Z,85
2023-01-05T01:38:21.475Z,85
2023-01-05T01:40:21.549Z,85
2023-01-05T01:42:21.535Z,85
2023-01-05T01:44:21.470Z,85
2023-01-05T01:46:21.560Z,85
2023-01-05T01:48:21.581Z,85
2023-01-05T01:50:21.495Z,85
2023-01-05T01:52:21.482Z,85
2023-01-05T01:54:21.480Z,85
2023-01-05T01:56:21.521Z,85
2023-01-05T01:58:21.509Z,85
2023-01-05T02:00:21.604Z,85
2023-01-05T02:04:21.561Z,85
2023-01-05T02:06:21.588Z,84
2023-01-05T02:08:21.487Z,84
2023-01-05T02:10:21.621Z,84
2023-01-05T02:12:21.485Z,84
2023-01-05T02:14:21.490Z,84
2023-01-05T02:16:21.526Z,84
2023-01-05T02:18:21.534Z,84
2023-01-05T02:20:21.494Z,84
2023-01-05T02:22:21.480Z,85
2023-01-05T02:24:21.494Z,84
2023-01-05T02:26:21.544Z,84
2023-01-05T02:28:21.490Z,84
2023-01-05T02:30:21.505Z,85
2023-01-05T02:32:21.485Z,85
2023-01-05T02:40:21.529Z,85
2023-01-05T02:42:21.480Z,85
2023-01-05T02:44:21.528Z,85
2023-01-05T02:46:21.574Z,85
2023-01-05T02:48:21.552Z,85
2023-01-05T02:50:21.546Z,85
2023-01-05T02:52:21.480Z,85
2023-01-05T02:54:21.615Z,85
2023-01-05T02:56:21.477Z,85
2023-01-05T02:58:21.483Z,85
2023-01-05T03:00:21.507Z,85
2023-01-05T03:02:21.765Z,85
2023-01-05T03:04:21.671Z,85
2023-01-05T03:06:21.483Z,85
2023-01-05T03:08:21.497Z,85
2023-01-05T03:10:21.519Z,85
2023-01-05T03:14:21.941Z,85
2023-01-05T03:16:21.502Z,85
2023-01-05T03:18:21.521Z,85
2023-01-05T03:20:21.503Z,85
2023-01-05T03:22:21.487Z,85
2023-01-05T03:24:21.518Z,85
2023-01-05T03:26:21.524Z,85
2023-01-05T03:28:21.489Z,85
2023-01-05T03:30:21.548Z,85
2023-01-05T03:32:21.497Z,85
2023-01-05T03:34:21.504Z,85
2023-01-05T03:36:21.515Z,85
2023-01-05T03:38:21.509Z,85
2023-01-05T03:40:21.539Z,85
2023-01-05T03:42:21.489Z,85
2023-01-05T03:44:21.509Z,85
2023-01-05T03:46:21.624Z,85
2023-01-05T03:48:21.555Z,85
2023-01-05T03:50:21.489Z,85
2023-01-05T03:52:21.620Z,85
2023-01-05T03:54:21.496Z,85
2023-01-05T03:56:21.498Z,85
2023-01-05T03:58:21.525Z,85
2023-01-05T04:04:21.521Z,85
2023-01-05T04:06:21.566Z,85
2023-01-05T04:08:21.473Z,85
2023-01-05T04:10:21.564Z,85
2023-01-05T04:12:21.488Z,84
2023-01-05T04:14:21.551Z,85
2023-01-05T04:16:21.552Z,85
2023-01-05T04:18:21.563Z,84
2023-01-05T04:22:26.895Z,84
2023-01-05T04:24:21.493Z,84
2023-01-05T04:26:21.548Z,84
2023-01-05T04:32:21.486Z,85
2023-01-05T04:34:21.496Z,85
2023-01-05T04:38:21.556Z,85
2023-01-05T04:42:21.490Z,84
2023-01-05T04:44:21.489Z,85
2023-01-05T04:46:21.520Z,84
2023-01-05T04:48:21.538Z,84
2023-01-05T04:50:21.556Z,84
2023-01-05T04:52:21.537Z,84
2023-01-05T04:54:21.498Z,84
2023-01-05T04:56:21.543Z,84
2023-01-05T04:58:21.512Z,85
2023-01-05T05:00:21.510Z,85
2023-01-05T05:02:21.651Z,85
2023-01-05T05:04:21.644Z,85
2023-01-05T05:06:21.539Z,85
2023-01-05T05:08:21.584Z,85
2023-01-05T05:10:21.581Z,85
2023-01-05T05:12:21.507Z,85
2023-01-05T05:14:21.522Z,85
2023-01-05T05:16:21.545Z,85
2023-01-05T05:18:21.484Z,85
2023-01-05T05:20:21.482Z,85
2023-01-05T05:24:21.508Z,86
2023-01-05T05:26:21.530Z,86
2023-01-05T05:28:21.536Z,87
2023-01-05T05:30:21.522Z,86
2023-01-05T05:32:21.507Z,87
2023-01-05T05:34:21.547Z,86
2023-01-05T05:36:21.548Z,87
2023-01-05T05:38:21.587Z,87
2023-01-05T05:42:21.533Z,87
2023-01-05T05:46:21.633Z,86
2023-01-05T05:48:21.571Z,86
2023-01-05T05:50:21.526Z,87
2023-01-05T05:52:21.535Z,87
2023-01-05T05:54:21.510Z,87
2023-01-05T05:56:21.518Z,88
2023-01-05T05:58:21.496Z,87
2023-01-05T06:00:21.616Z,87
2023-01-05T06:02:21.569Z,88
2023-01-05T06:04:21.638Z,88
2023-01-05T06:06:21.509Z,88
2023-01-05T06:08:21.513Z,88
2023-01-05T06:10:21.519Z,88
2023-01-05T06:12:21.489Z,88
2023-01-05T06:14:21.512Z,88
2023-01-05T06:18:21.591Z,88
2023-01-05T06:20:21.601Z,88
2023-01-05T06:22:21.590Z,88
2023-01-05T06:24:21.600Z,88
2023-01-05T06:26:21.535Z,89
2023-01-05T06:30:21.506Z,89
2023-01-05T06:32:21.595Z,89
2023-01-05T06:34:21.507Z,88
2023-01-05T06:36:21.564Z,88
2023-01-05T06:38:21.508Z,88
2023-01-05T06:40:21.552Z,88
2023-01-05T06:44:21.562Z,88
2023-01-05T06:46:21.588Z,88
2023-01-05T06:48:21.591Z,88
2023-01-05T06:50:21.583Z,88
2023-01-05T06:52:21.600Z,88
2023-01-05T06:54:21.561Z,88
2023-01-05T06:56:21.526Z,88
2023-01-05T06:58:21.520Z,88
2023-01-05T07:00:21.558Z,88
2023-01-05T07:02:21.636Z,88
2023-01-05T07:04:21.615Z,88
2023-01-05T07:06:21.604Z,88
2023-01-05T07:08:21.552Z,89
2023-01-05T07:10:21.599Z,89
2023-01-05T07:14:21.564Z,89
2023-01-05T07:16:21.550Z,89
2023-01-05T07:18:21.500Z,89
2023-01-05T07:22:21.670Z,89
2023-01-05T07:24:21.594Z,89
2023-01-05T07:26:21.512Z,89
2023-01-05T07:28:21.531Z,89
2023-01-05T07:30:21.518Z,90
2023-01-05T07:32:21.651Z,90
2023-01-05T07:34:21.546Z,90
2023-01-05T07:40:21.564Z,90
2023-01-05T07:42:21.518Z,90
2023-01-05T07:44:21.594Z,90
2023-01-05T07:46:21.670Z,91
2023-01-05T07:48:23.588Z,91
2023-01-05T07:52:21.512Z,91
2023-01-05T07:58:21.649Z,91
2023-01-05T08:00:21.579Z,91
2023-01-05T08:02:21.704Z,91
2023-01-05T08:04:21.553Z,91
2023-01-05T08:08:24.472Z,91
2023-01-05T08:10:21.595Z,91
2023-01-05T08:12:21.590Z,91
2023-01-05T08:14:21.579Z,91
2023-01-05T08:18:21.534Z,91
2023-01-05T08:20:21.520Z,91
2023-01-05T08:22:21.586Z,91
2023-01-05T08:24:21.529Z,91
2023-01-05T08:26:21.613Z,91
2023-01-05T08:28:21.552Z,91
2023-01-05T08:30:21.578Z,91
2023-01-05T08:32:21.524Z,91
2023-01-05T08:34:21.566Z,91
2023-01-05T08:36:21.698Z,91
2023-01-05T08:38:21.566Z,91
2023-01-05T08:40:21.544Z,91
2023-01-05T08:42:21.625Z,91
2023-01-05T08:44:21.508Z,91
2023-01-05T08:46:21.600Z,91
2023-01-05T08:48:21.532Z,91
2023-01-05T08:50:21.532Z,91
2023-01-05T08:52:21.526Z,91
2023-01-05T08:54:21.613Z,91
2023-01-05T08:56:21.521Z,91
2023-01-05T09:00:21.725Z,91
2023-01-05T09:02:25.359Z,90
2023-01-05T09:04:21.626Z,90
2023-01-05T09:06:21.569Z,90
2023-01-05T09:08:21.525Z,90
2023-01-05T09:10:21.568Z,89
2023-01-05T09:12:21.607Z,89
2023-01-05T09:16:35.468Z,89
2023-01-05T09:18:21.533Z,89
2023-01-05T09:20:21.745Z,89
2023-01-05T09:22:21.524Z,89
2023-01-05T09:24:21.573Z,88
2023-01-05T09:26:21.594Z,88
2023-01-05T09:28:21.612Z,88
2023-01-05T09:30:21.526Z,88
2023-01-05T09:32:21.540Z,88
2023-01-05T09:34:21.527Z,88
2023-01-05T09:36:21.559Z,88
2023-01-05T09:38:21.522Z,88
2023-01-05T09:40:21.604Z,88
2023-01-05T09:42:21.535Z,88
2023-01-05T09:44:21.545Z,88
2023-01-05T09:48:21.522Z,88
2023-01-05T09:50:21.570Z,88
2023-01-05T09:52:21.516Z,87
2023-01-05T09:54:21.543Z,87
2023-01-05T09:56:42.252Z,87
2023-01-05T09:58:24.867Z,87
2023-01-05T10:00:21.543Z,88
2023-01-05T10:02:21.565Z,88
2023-01-05T10:04:26.731Z,88
2023-01-05T10:06:21.529Z,88
2023-01-05T10:08:21.569Z,87
2023-01-05T10:10:26.557Z,87
2023-01-05T10:12:21.558Z,87
2023-01-05T10:14:21.544Z,87
2023-01-05T10:16:26.167Z,87
2023-01-05T10:18:21.593Z,87
2023-01-05T10:20:21.593Z,87
2023-01-05T10:22:21.568Z,86
2023-01-05T10:24:21.545Z,86
2023-01-05T10:26:21.539Z,86
2023-01-05T10:28:21.544Z,86
2023-01-05T10:30:21.601Z,86
2023-01-05T10:32:21.942Z,87
2023-01-05T10:34:21.547Z,87
2023-01-05T10:36:34.732Z,87
2023-01-05T10:40:21.607Z,87
2023-01-05T10:42:21.537Z,87
2023-01-05T10:44:21.551Z,87
2023-01-05T10:46:33.826Z,87
2023-01-05T10:48:21.529Z,87
2023-01-05T10:50:22.564Z,87
2023-01-05T10:52:21.568Z,87
2023-01-05T10:54:21.548Z,86
2023-01-05T10:56:21.527Z,86
2023-01-05T10:58:21.932Z,86
2023-01-05T11:00:21.549Z,86
2023-01-05T11:08:21.635Z,86
2023-01-05T11:10:21.580Z,86
2023-01-05T11:12:21.543Z,86
2023-01-05T11:16:21.593Z,85
2023-01-05T11:20:21.520Z,85
2023-01-05T11:22:21.525Z,85
2023-01-05T11:24:21.544Z,85
2023-01-05T11:26:21.505Z,85
2023-01-05T11:30:21.555Z,84
2023-01-05T11:32:21.551Z,84
2023-01-05T11:36:21.517Z,84
2023-01-05T11:38:21.573Z,83
2023-01-05T11:42:25.202Z,83
2023-01-05T11:44:21.528Z,83
2023-01-05T11:46:21.572Z,83
2023-01-05T11:48:21.657Z,82
2023-01-05T11:50:21.633Z,82
2023-01-05T11:52:21.569Z,82
2023-01-05T11:54:21.564Z,81
2023-01-05T11:56:21.531Z,81
2023-01-05T11:58:21.582Z,81
2023-01-05T12:00:21.588Z,81
2023-01-05T12:02:21.537Z,81
2023-01-05T12:04:21.556Z,81
2023-01-05T12:06:21.513Z,82
2023-01-05T12:08:21.547Z,81
2023-01-05T12:10:21.538Z,81
2023-01-05T12:12:21.532Z,81
2023-01-05T12:14:21.527Z,81
2023-01-05T12:18:21.619Z,81
2023-01-05T12:20:21.522Z,81
2023-01-05T12:22:21.527Z,80
2023-01-05T12:26:21.555Z,80
2023-01-05T12:28:35.912Z,80
2023-01-05T12:34:21.557Z,80
2023-01-05T12:36:21.595Z,80
2023-01-05T12:38:21.568Z,81
2023-01-05T12:40:21.559Z,81
2023-01-05T12:42:21.595Z,80
2023-01-05T12:44:21.560Z,81
2023-01-05T12:46:21.638Z,80
2023-01-05T12:50:21.543Z,80
2023-01-05T12:54:21.541Z,80
2023-01-05T12:58:21.595Z,80
2023-01-05T13:00:21.623Z,80
2023-01-05T13:02:21.694Z,80
2023-01-05T13:04:22.465Z,80
2023-01-05T13:12:21.521Z,80
2023-01-05T13:14:21.577Z,80
2023-01-05T13:16:21.578Z,80
2023-01-05T13:18:21.562Z,80
2023-01-05T13:20:21.527Z,80
2023-01-05T13:22:21.544Z,80
2023-01-05T13:24:21.553Z,80
2023-01-05T13:26:21.534Z,80
2023-01-05T13:28:21.527Z,80
2023-01-05T13:30:21.539Z,80
2023-01-05T13:32:21.535Z,80
2023-01-05T13:36:21.599Z,80
2023-01-05T13:40:21.564Z,80
2023-01-05T13:42:21.543Z,80
2023-01-05T13:46:21.587Z,80
2023-01-05T13:48:25.237Z,80
2023-01-05T13:50:21.527Z,80
2023-01-05T13:52:21.577Z,80
2023-01-05T13:54:21.539Z,80
2023-01-05T13:56:21.523Z,80
2023-01-05T13:58:21.556Z,80
2023-01-05T14:02:21.625Z,80
2023-01-05T14:04:21.534Z,80
2023-01-05T14:06:21.525Z,80
2023-01-05T14:08:21.527Z,80
2023-01-05T14:10:21.537Z,80
2023-01-05T14:12:21.596Z,80
2023-01-05T14:14:23.518Z,80
2023-01-05T14:16:22.155Z,80
2023-01-05T14:18:22.078Z,80
2023-01-05T14:20:22.077Z,80
2023-01-05T14:22:22.083Z,80
2023-01-05T14:24:22.068Z,80
2023-01-05T14:26:22.069Z,80
2023-01-05T14:28:22.079Z,80
2023-01-05T14:34:22.069Z,80
2023-01-05T14:36:22.122Z,80
2023-01-05T14:38:22.068Z,80
2023-01-05T14:40:22.059Z,80
2023-01-05T14:42:22.067Z,80
2023-01-05T14:44:22.081Z,80
2023-01-05T14:46:22.060Z,80
2023-01-05T14:50:22.063Z,80
2023-01-05T14:54:22.073Z,80
2023-01-05T14:56:22.093Z,80
2023-01-05T15:00:22.731Z,80
2023-01-05T15:02:22.075Z,80
2023-01-05T15:04:22.073Z,80
2023-01-05T15:06:22.069Z,80
2023-01-05T15:08:22.083Z,80
2023-01-05T15:12:22.075Z,81
2023-01-05T15:14:22.093Z,81
2023-01-05T15:16:22.082Z,80
2023-01-05T15:18:22.117Z,81
2023-01-05T15:20:22.071Z,81
2023-01-05T15:22:37.043Z,81
2023-01-05T15:24:22.080Z,81
2023-01-05T15:28:22.154Z,81
2023-01-05T15:30:22.081Z,81
2023-01-05T15:32:22.065Z,81
2023-01-05T15:34:22.083Z,81
2023-01-05T15:36:22.072Z,81
2023-01-05T15:38:22.066Z,81
2023-01-05T15:40:22.150Z,82
2023-01-05T15:42:22.159Z,82
2023-01-05T15:44:22.068Z,82
2023-01-05T15:46:22.060Z,82
2023-01-05T15:48:22.072Z,82
2023-01-05T15:50:22.070Z,82
2023-01-05T15:52:22.078Z,82
2023-01-05T15:54:22.067Z,82
2023-01-05T15:56:22.088Z,82
2023-01-05T15:58:22.082Z,82
2023-01-05T16:00:22.130Z,82
2023-01-05T16:02:22.122Z,82
2023-01-05T16:04:22.090Z,82
2023-01-05T16:06:22.100Z,82
2023-01-05T16:08:22.082Z,82
2023-01-05T16:10:22.085Z,82
2023-01-05T16:12:22.064Z,82
2023-01-05T16:14:22.059Z,83
2023-01-05T16:16:43.516Z,83
2023-01-05T16:18:22.081Z,82
2023-01-05T16:22:22.136Z,82
2023-01-05T16:24:22.074Z,82
2023-01-05T16:34:22.088Z,83
2023-01-05T16:36:22.089Z,83
2023-01-05T16:38:22.106Z,83
2023-01-05T16:40:22.105Z,83
2023-01-05T16:44:22.087Z,82
2023-01-05T16:46:22.115Z,83
2023-01-05T16:48:22.099Z,82
2023-01-05T16:50:22.082Z,82
2023-01-05T16:52:23.764Z,82
2023-01-05T16:54:22.824Z,82
2023-01-05T16:56:22.084Z,82
2023-01-05T17:00:22.091Z,83
2023-01-05T17:04:22.152Z,83
2023-01-05T17:06:22.080Z,83
2023-01-05T17:08:22.103Z,83
2023-01-05T17:10:22.120Z,83
2023-01-05T17:12:22.090Z,83
2023-01-05T17:14:22.074Z,83
2023-01-05T17:20:22.093Z,83
2023-01-05T17:22:22.088Z,83
2023-01-05T17:24:22.094Z,83
2023-01-05T17:26:22.089Z,83
2023-01-05T17:28:22.103Z,83
2023-01-05T17:30:22.079Z,83
2023-01-05T17:32:22.086Z,83
2023-01-05T17:34:22.090Z,83
2023-01-05T17:36:22.093Z,83
2023-01-05T17:38:22.092Z,83
2023-01-05T17:40:22.135Z,83
2023-01-05T17:42:22.703Z,83
2023-01-05T17:44:22.113Z,83
2023-01-05T17:46:22.165Z,83
2023-01-05T17:48:22.097Z,83
2023-01-05T17:50:22.110Z,83
2023-01-05T17:54:22.091Z,83
2023-01-05T17:56:22.099Z,83
2023-01-05T18:00:22.317Z,83
2023-01-05T18:02:22.097Z,83
2023-01-05T18:04:22.132Z,83
2023-01-05T18:06:22.119Z,83
2023-01-05T18:08:22.088Z,83
2023-01-05T18:10:22.102Z,83
2023-01-05T18:14:22.108Z,83
2023-01-05T18:16:22.086Z,83
2023-01-05T18:18:22.101Z,83
2023-01-05T18:20:22.097Z,83
2023-01-05T18:24:22.091Z,83
2023-01-05T18:26:22.107Z,84
2023-01-05T18:28:22.111Z,84
2023-01-05T18:30:22.181Z,84
2023-01-05T18:36:00.379Z,84
2023-01-05T18:38:10.249Z,84
2023-01-05T18:40:05.382Z,85
2023-01-05T18:42:05.099Z,84
2023-01-05T18:44:04.931Z,85
2023-01-05T18:46:05.343Z,85
2023-01-05T18:47:58.352Z,84
2023-01-05T18:50:03.587Z,84
2023-01-05T18:54:05.358Z,84
2023-01-05T18:56:04.497Z,84
2023-01-05T18:58:05.513Z,84
2023-01-05T19:00:00.768Z,85
2023-01-05T19:02:02.192Z,85
2023-01-05T19:04:06.872Z,85
2023-01-05T19:06:06.958Z,85
2023-01-05T19:08:03.746Z,85
2023-01-05T19:10:05.678Z,85
2023-01-05T19:12:00.261Z,85
2023-01-05T19:14:05.262Z,85
2023-01-05T19:18:03.587Z,85
2023-01-05T19:20:00.721Z,85
2023-01-05T19:24:03.221Z,85
2023-01-05T19:26:04.290Z,85
2023-01-05T19:30:04.070Z,85
2023-01-05T19:32:00.456Z,85
2023-01-05T19:36:00.973Z,85
2023-01-05T19:38:03.909Z,85
2023-01-05T19:42:06.614Z,84
2023-01-05T19:44:03.638Z,84
2023-01-05T19:46:06.943Z,84
2023-01-05T19:49:59.408Z,84
2023-01-05T19:52:03.478Z,85
2023-01-05T19:54:06.740Z,85
2023-01-05T19:56:03.754Z,85
2023-01-05T20:00:06.480Z,85
2023-01-05T20:02:02.124Z,85
2023-01-05T20:06:03.459Z,85
2023-01-05T20:08:02.853Z,85
2023-01-05T20:12:14.193Z,85
2023-01-05T20:14:00.558Z,85
2023-01-05T20:18:00.647Z,85
2023-01-05T20:20:01.173Z,85
2023-01-05T20:26:01.051Z,85
2023-01-05T20:30:03.463Z,86
2023-01-05T20:32:13.216Z,86
2023-01-05T20:34:03.739Z,86
2023-01-05T20:35:59.826Z,86
2023-01-05T20:38:09.421Z,86
2023-01-05T20:43:58.381Z,86
2023-01-05T20:46:05.565Z,86
2023-01-05T20:50:02.133Z,86
2023-01-05T20:54:00.214Z,87
2023-01-05T20:56:03.903Z,87
2023-01-05T20:58:03.119Z,87
2023-01-05T21:00:02.995Z,87
2023-01-05T21:02:18.243Z,87
2023-01-05T21:04:06.797Z,87
2023-01-05T21:06:03.647Z,88
2023-01-05T21:08:00.405Z,88
2023-01-05T21:12:03.920Z,88
2023-01-05T21:14:03.615Z,88
2023-01-05T21:18:08.532Z,89
2023-01-05T21:20:05.507Z,89
2023-01-05T21:24:04.679Z,89
2023-01-05T21:26:08.932Z,89
2023-01-05T21:28:08.483Z,89
2023-01-05T21:30:01.540Z,89
2023-01-05T21:36:03.809Z,89
2023-01-05T21:38:02.600Z,89
2023-01-05T21:40:05.442Z,89
2023-01-05T21:42:03.684Z,89
2023-01-05T21:44:03.602Z,89
2023-01-05T21:48:01.587Z,89
2023-01-05T21:50:03.654Z,89
2023-01-05T21:54:00.459Z,89
2023-01-05T21:56:03.603Z,89
2023-01-05T22:00:03.871Z,89
2023-01-05T22:02:03.096Z,89
2023-01-05T22:06:03.624Z,89
2023-01-05T22:08:04.017Z,89
2023-01-05T22:12:06.753Z,89
2023-01-05T22:14:03.554Z,89
2023-01-05T22:18:05.712Z,89
2023-01-05T22:20:01.639Z,89
2023-01-05T22:22:04.360Z,89
2023-01-05T22:24:02.079Z,89
2023-01-05T22:26:01.542Z,89
2023-01-05T22:30:04.119Z,89
2023-01-05T22:32:01.902Z,89
2023-01-05T22:36:01.384Z,89
2023-01-05T22:38:03.681Z,89
2023-01-05T22:42:03.642Z,89
2023-01-05T22:44:01.620Z,89
2023-01-05T22:48:03.265Z,90
2023-01-05T22:50:03.577Z,90
2023-01-05T22:53:59.963Z,90
2023-01-05T22:56:03.620Z,90
2023-01-05T23:00:04.468Z,90
2023-01-05T23:02:03.863Z,90
2023-01-05T23:06:06.805Z,90
2023-01-05T23:08:04.275Z,90
2023-01-05T23:12:02.905Z,90
2023-01-05T23:14:03.651Z,90
2023-01-05T23:18:03.669Z,90
2023-01-05T23:19:58.079Z,90
2023-01-05T23:24:09.679Z,90
2023-01-05T23:26:03.638Z,90
2023-01-05T23:30:03.864Z,90
2023-01-05T23:31:58.799Z,90
2023-01-05T23:35:59.858Z,90
2023-01-05T23:38:05.311Z,90
2023-01-05T23:42:03.627Z,90
2023-01-05T23:44:00.349Z,90
2023-01-05T23:46:06.204Z,90
2023-01-05T23:48:03.587Z,90
2023-01-05T23:50:03.419Z,90
2023-01-05T23:54:02.493Z,90
2023-01-05T23:56:03.106Z,90
